Time;durP1;ratioP1;P1;durP2;ratioP2;P2;SDS_P1;SDS_P2;PMS_P1;PMS_P2;Temp;Humidity;BMP_temperature;BMP_pressure;BME280_temperature;BME280_humidity;BME280_pressure;Samples;Min_cycle;Max_cycle;Signal;HPM_P1;HPM_P2
2023/11/21 00:01:37;;;;;;;;;4.67;4.33;;;;;11.63;88.67;101071.47;5059140;28;51022;-48
2023/11/21 00:04:03;;;;;;;;;6.67;6.00;;;;;11.62;88.59;101068.91;5058103;28;45359;-47
2023/11/21 00:06:29;;;;;;;;;5.00;5.00;;;;;11.63;88.56;101066.16;5058252;28;45467;-48
2023/11/21 00:08:55;;;;;;;;;5.00;5.00;;;;;11.65;88.23;101069.56;5058714;28;45315;-49
2023/11/21 00:11:21;;;;;;;;;7.33;7.33;;;;;11.63;88.35;101065.25;5065736;28;45590;-48
2023/11/21 00:13:46;;;;;;;;;9.00;7.00;;;;;11.62;88.44;101064.41;5065684;27;45680;-47
2023/11/21 00:16:11;;;;;;;;;5.00;5.00;;;;;11.62;88.69;101074.22;5059909;28;45530;-51
2023/11/21 00:18:37;;;;;;;;;6.33;4.67;;;;;11.61;88.47;101060.03;5053685;28;68294;-47
2023/11/21 00:21:03;;;;;;;;;6.00;6.00;;;;;11.62;88.62;101060.91;5043420;28;47988;-47
2023/11/21 00:23:28;;;;;;;;;4.00;4.00;;;;;11.61;88.32;101064.50;5058254;27;45366;-48
2023/11/21 00:25:54;;;;;;;;;6.00;6.00;;;;;11.59;88.23;101070.75;5050921;28;45335;-46
2023/11/21 00:28:19;;;;;;;;;4.00;4.00;;;;;11.55;88.51;101068.31;5058040;28;46198;-46
2023/11/21 00:30:44;;;;;;;;;7.00;7.00;;;;;11.50;88.33;101063.22;5061406;28;74573;-48
2023/11/21 00:33:10;;;;;;;;;8.67;8.00;;;;;11.51;88.54;101072.06;5064213;28;45389;-46
2023/11/21 00:35:35;;;;;;;;;5.00;5.00;;;;;11.48;88.90;101062.44;5058790;28;45410;-48
2023/11/21 00:38:00;;;;;;;;;8.33;6.67;;;;;11.42;88.74;101060.94;5058983;28;70518;-48
2023/11/21 00:40:26;;;;;;;;;6.33;6.33;;;;;11.39;89.01;101060.22;5066385;28;74623;-47
2023/11/21 00:42:51;;;;;;;;;6.67;6.00;;;;;11.34;88.95;101057.81;5067274;28;55964;-49
2023/11/21 00:45:16;;;;;;;;;5.33;5.33;;;;;11.28;88.96;101055.44;5062517;27;45407;-46
2023/11/21 00:47:42;;;;;;;;;4.00;4.00;;;;;11.23;89.15;101060.13;5058863;28;59736;-47
2023/11/21 00:50:09;;;;;;;;;3.33;2.33;;;;;11.18;89.26;101062.16;5059419;28;45911;-49
2023/11/21 00:52:34;;;;;;;;;6.67;4.67;;;;;11.13;89.45;101059.69;5064774;28;45468;-47
2023/11/21 00:55:00;;;;;;;;;3.33;3.33;;;;;11.08;89.58;101064.38;5058606;28;45455;-49
2023/11/21 00:57:26;;;;;;;;;4.67;4.67;;;;;11.02;89.39;101064.69;5058692;28;45463;-48
2023/11/21 00:59:52;;;;;;;;;5.00;4.33;;;;;10.97;89.84;101054.25;5058614;28;46235;-47
2023/11/21 01:02:17;;;;;;;;;4.33;4.33;;;;;10.93;90.38;101068.63;5058645;28;45355;-47
2023/11/21 01:04:43;;;;;;;;;5.67;4.00;;;;;10.90;90.48;101068.78;5062518;28;69217;-50
2023/11/21 01:07:09;;;;;;;;;6.00;6.00;;;;;10.87;90.20;101071.59;5058012;28;45535;-48
2023/11/21 01:09:34;;;;;;;;;7.33;5.67;;;;;10.82;90.59;101074.47;5058693;28;45529;-48
2023/11/21 01:11:59;;;;;;;;;8.67;6.67;;;;;10.80;90.59;101075.47;5056583;28;72956;-47
2023/11/21 01:14:26;;;;;;;;;7.00;7.00;;;;;10.76;90.19;101072.09;5058086;28;45821;-48
2023/11/21 01:16:51;;;;;;;;;4.00;4.00;;;;;10.73;90.74;101073.09;5058014;28;45401;-48
2023/11/21 01:19:17;;;;;;;;;7.00;5.67;;;;;10.71;90.70;101080.28;5057839;28;49967;-47
2023/11/21 01:21:42;;;;;;;;;6.33;5.00;;;;;10.71;91.01;101076.75;5057431;28;65833;-47
2023/11/21 01:24:07;;;;;;;;;6.33;3.67;;;;;10.70;91.30;101075.03;5055926;28;68287;-48
2023/11/21 01:26:33;;;;;;;;;4.33;4.33;;;;;10.73;91.16;101075.75;5061331;28;45367;-47
2023/11/21 01:28:59;;;;;;;;;6.00;6.00;;;;;10.76;91.31;101086.25;5057753;28;46871;-48
2023/11/21 01:43:56;;;;;;;;;4.67;4.00;;;;;11.00;90.92;101099.38;5054734;28;72697;-48
2023/11/21 01:46:22;;;;;;;;;6.00;3.00;;;;;11.00;91.13;101102.03;5058800;28;45778;-49
2023/11/21 01:48:48;;;;;;;;;5.00;3.67;;;;;11.00;90.84;101096.72;5061291;28;45538;-47
2023/11/21 01:51:14;;;;;;;;;5.00;5.00;;;;;11.03;90.59;101099.22;5057403;27;57043;-47
2023/11/21 01:53:40;;;;;;;;;6.33;4.33;;;;;11.05;90.74;101105.31;5055511;28;45590;-48
2023/11/21 01:56:07;;;;;;;;;3.00;3.00;;;;;11.08;90.53;101104.31;5054225;28;45689;-46
2023/11/21 01:58:33;;;;;;;;;6.00;4.67;;;;;11.11;90.59;101103.28;5056616;28;45526;-49
2023/11/21 02:00:59;;;;;;;;;5.00;5.00;;;;;11.12;90.00;101110.34;5064939;28;45506;-49
2023/11/21 02:03:26;;;;;;;;;7.33;5.00;;;;;11.12;90.27;101110.34;5057893;28;45401;-47
2023/11/21 02:05:53;;;;;;;;;4.67;3.67;;;;;11.13;90.23;101120.91;5058035;28;45551;-48
2023/11/21 02:08:19;;;;;;;;;5.67;4.00;;;;;11.15;90.30;101108.41;5056376;28;45562;-49
2023/11/21 02:10:45;;;;;;;;;4.33;4.33;;;;;11.18;90.19;101105.59;5057840;28;46442;-48
2023/11/21 02:13:10;;;;;;;;;4.00;4.00;;;;;11.18;90.06;101102.94;5057212;28;45237;-47
2023/11/21 02:15:36;;;;;;;;;7.00;5.00;;;;;11.20;89.94;101106.41;5066561;28;45212;-47
2023/11/21 02:18:05;;;;;;;;;4.33;4.00;;;;;11.21;89.71;101105.47;5063569;28;45401;-50
2023/11/21 02:20:31;;;;;;;;;4.00;4.00;;;;;11.22;89.61;101103.66;5059575;28;47571;-48
2023/11/21 02:23:00;;;;;;;;;4.67;4.67;;;;;11.22;89.88;101107.19;5062046;28;45675;-50
2023/11/21 02:25:30;;;;;;;;;4.00;4.00;;;;;11.23;89.64;101110.72;5060650;28;45493;-47
2023/11/21 02:27:56;;;;;;;;;3.00;3.00;;;;;11.22;89.80;101112.53;5060910;28;45474;-50
2023/11/21 02:30:22;;;;;;;;;5.67;4.00;;;;;11.22;89.83;101107.19;5062420;28;46722;-50
2023/11/21 02:32:48;;;;;;;;;4.00;3.67;;;;;11.23;89.45;101116.03;5060935;28;56305;-47
2023/11/21 02:35:15;;;;;;;;;6.00;3.00;;;;;11.22;89.46;101116.97;5060965;28;45350;-50
2023/11/21 02:37:41;;;;;;;;;4.67;4.67;;;;;11.23;89.46;101121.38;5061011;28;45312;-50
2023/11/21 02:40:09;;;;;;;;;4.00;4.00;;;;;11.24;89.64;101121.28;5063985;28;48146;-51
2023/11/21 02:42:35;;;;;;;;;6.00;5.00;;;;;11.26;89.76;101115.88;5068283;28;45457;-48
2023/11/21 02:45:00;;;;;;;;;4.67;2.67;;;;;11.26;89.62;101115.88;5053937;28;45529;-49
2023/11/21 02:47:25;;;;;;;;;5.00;5.00;;;;;11.28;89.72;101132.66;5067431;28;69414;-47
2023/11/21 02:49:52;;;;;;;;;5.33;5.33;;;;;11.28;90.07;101122.00;5055416;28;45392;-49
2023/11/21 02:52:17;;;;;;;;;4.00;4.00;;;;;11.28;89.85;101121.13;5059951;28;45350;-48
2023/11/21 02:54:42;;;;;;;;;10.33;3.33;;;;;11.28;89.89;101118.47;5060661;28;50584;-48
2023/11/21 02:57:08;;;;;;;;;4.67;4.67;;;;;11.28;89.48;101119.34;5065324;28;70435;-50
2023/11/21 02:59:33;;;;;;;;;4.00;4.00;;;;;11.27;89.47;101120.28;5065841;28;46246;-48
2023/11/21 03:01:59;;;;;;;;;4.67;4.67;;;;;11.27;89.39;101125.59;5063973;27;45379;-48
2023/11/21 03:04:24;;;;;;;;;4.67;4.00;;;;;11.29;89.59;101128.19;5060621;28;58582;-47
2023/11/21 03:06:49;;;;;;;;;3.00;3.00;;;;;11.29;89.31;101130.84;5059537;28;69114;-47
2023/11/21 03:09:16;;;;;;;;;4.00;4.00;;;;;11.29;89.47;101123.75;5059305;28;75634;-50
2023/11/21 03:11:41;;;;;;;;;11.33;5.00;;;;;11.31;89.60;101121.84;5062208;28;45554;-48
2023/11/21 03:14:07;;;;;;;;;4.67;4.67;;;;;11.32;89.44;101115.59;5059000;28;45419;-47
2023/11/21 03:16:32;;;;;;;;;3.00;3.00;;;;;11.31;89.46;101113.00;5058976;28;45244;-47
2023/11/21 03:18:58;;;;;;;;;4.00;4.00;;;;;11.32;89.19;101118.25;5059629;28;45394;-47
2023/11/21 03:21:24;;;;;;;;;4.33;3.00;;;;;11.33;89.12;101117.31;5059889;28;45546;-48
2023/11/21 03:23:50;;;;;;;;;6.00;5.33;;;;;11.31;89.10;101119.19;5060209;28;45492;-48
2023/11/21 03:26:15;;;;;;;;;3.33;3.00;;;;;11.29;89.00;101121.09;5060352;28;45435;-56
2023/11/21 03:28:41;;;;;;;;;4.00;4.00;;;;;11.27;89.24;101128.25;5058677;28;47132;-50
2023/11/21 03:31:08;;;;;;;;;3.67;3.67;;;;;11.28;89.31;101134.44;5061186;28;46041;-48
2023/11/21 03:33:35;;;;;;;;;6.33;4.00;;;;;11.28;89.30;101139.75;5039410;28;45392;-50
2023/11/21 03:36:00;;;;;;;;;6.33;5.33;;;;;11.27;89.44;101136.25;5063594;28;45517;-51
2023/11/21 03:38:25;;;;;;;;;5.00;4.00;;;;;11.26;89.72;101131.84;5058680;28;45421;-51
2023/11/21 03:40:51;;;;;;;;;3.00;2.33;;;;;11.24;89.49;101129.28;5058889;28;73508;-49
2023/11/21 03:43:16;;;;;;;;;5.00;5.00;;;;;11.23;89.50;101132.88;5062749;28;50551;-50
2023/11/21 03:45:41;;;;;;;;;5.00;3.33;;;;;11.25;89.66;101133.66;5057664;28;69000;-48
2023/11/21 03:48:08;;;;;;;;;6.00;4.67;;;;;11.25;89.57;101135.44;5061822;28;45573;-48
2023/11/21 03:50:34;;;;;;;;;5.00;5.00;;;;;11.25;89.37;101135.44;5062441;28;45402;-48
2023/11/21 03:52:59;;;;;;;;;5.33;4.00;;;;;11.24;89.50;101137.25;5064588;28;45327;-51
2023/11/21 03:55:24;;;;;;;;;4.00;4.00;;;;;11.25;89.68;101140.78;5057307;28;69229;-49
2023/11/21 03:57:51;;;;;;;;;4.33;3.00;;;;;11.23;89.38;101140.84;5059548;28;46083;-49
2023/11/21 04:00:17;;;;;;;;;3.00;2.00;;;;;11.22;89.50;101146.25;5059404;28;45434;-48
2023/11/21 04:02:42;;;;;;;;;3.00;2.00;;;;;11.20;89.82;101142.81;5061764;28;45458;-47
2023/11/21 04:05:07;;;;;;;;;5.00;4.00;;;;;11.23;89.64;101145.34;5058737;28;55695;-45
2023/11/21 04:07:33;;;;;;;;;3.00;3.00;;;;;11.21;90.02;101144.53;5058073;28;74233;-50
2023/11/21 04:09:58;;;;;;;;;3.33;3.33;;;;;11.19;89.90;101147.25;5058321;28;60306;-48
2023/11/21 04:12:24;;;;;;;;;3.33;3.33;;;;;11.19;90.26;101159.72;5059572;28;45270;-49
2023/11/21 04:14:49;;;;;;;;;5.33;3.00;;;;;11.18;90.46;101158.84;5058507;28;69472;-47
2023/11/21 04:17:18;;;;;;;;;3.00;3.00;;;;;11.17;90.16;101164.25;5059554;28;45347;-47
2023/11/21 04:19:43;;;;;;;;;7.67;4.00;;;;;11.16;90.55;101163.41;5063604;28;45321;-48
2023/11/21 04:22:08;;;;;;;;;3.33;3.33;;;;;11.17;90.67;101169.56;5063947;28;63633;-47
2023/11/21 04:24:34;;;;;;;;;4.33;3.00;;;;;11.18;91.08;101173.97;5062240;28;69473;-48
2023/11/21 04:26:59;;;;;;;;;2.00;2.00;;;;;11.18;90.95;101171.31;5058520;28;75892;-47
2023/11/21 04:29:24;;;;;;;;;6.00;5.00;;;;;11.19;91.31;101168.56;5058107;28;70533;-47
2023/11/21 04:31:50;;;;;;;;;4.00;4.00;;;;;11.20;90.72;101167.63;5063086;28;45390;-49
2023/11/21 04:34:15;;;;;;;;;7.00;4.00;;;;;11.19;91.19;101163.25;5060242;27;45411;-47
2023/11/21 04:36:40;;;;;;;;;5.67;5.33;;;;;11.19;91.29;101178.38;5058704;28;45912;-46
2023/11/21 04:39:06;;;;;;;;;7.67;5.00;;;;;11.17;91.77;101181.09;5056029;28;72662;-47
2023/11/21 04:41:32;;;;;;;;;10.33;8.67;;;;;11.17;91.19;101183.75;5063557;28;45543;-47
2023/11/21 04:43:58;;;;;;;;;4.00;4.00;;;;;11.15;91.87;101184.78;5050987;28;45400;-46
2023/11/21 04:46:23;;;;;;;;;5.00;5.00;;;;;11.15;92.09;101182.97;5059018;28;47179;-46
2023/11/21 04:48:49;;;;;;;;;7.33;4.67;;;;;11.15;92.46;101188.28;5058670;28;45355;-47
2023/11/21 04:51:14;;;;;;;;;5.33;5.33;;;;;11.16;92.83;101178.50;5056486;28;66914;-50
2023/11/21 04:53:39;;;;;;;;;5.67;5.00;;;;;11.17;92.91;101191.75;5057613;28;69423;-48
2023/11/21 04:56:05;;;;;;;;;4.67;4.67;;;;;11.18;92.70;101181.97;5057575;28;45442;-47
2023/11/21 04:58:30;;;;;;;;;7.67;6.33;;;;;11.20;92.63;101174.78;5050485;28;45419;-48
2023/11/21 05:00:56;;;;;;;;;5.67;5.00;;;;;11.21;93.04;101179.13;5057004;28;69203;-46
2023/11/21 05:03:23;;;;;;;;;5.33;5.33;;;;;11.20;92.75;101177.44;5058526;28;69378;-47
2023/11/21 05:05:48;;;;;;;;;8.33;6.00;;;;;11.19;93.79;101181.03;5054613;28;45849;-46
2023/11/21 05:08:14;;;;;;;;;6.33;6.33;;;;;11.17;93.35;101186.44;5057246;28;73286;-48
2023/11/21 05:10:39;;;;;;;;;7.67;4.67;;;;;11.16;93.32;101189.13;5056840;28;69551;-47
2023/11/21 05:13:09;;;;;;;;;5.00;5.00;;;;;11.16;93.92;101190.03;5057115;28;69534;-47
2023/11/21 05:15:34;;;;;;;;;8.33;6.00;;;;;11.19;93.41;101199.66;5060419;28;45399;-48
2023/11/21 05:18:00;;;;;;;;;6.00;6.00;;;;;11.19;93.84;101199.66;5058092;28;45809;-47
2023/11/21 05:20:25;;;;;;;;;5.33;5.33;;;;;11.23;94.15;101201.25;5057577;28;68045;-47
2023/11/21 05:22:51;;;;;;;;;8.33;7.67;;;;;11.25;93.98;101202.03;5058216;28;45354;-49
2023/11/21 05:25:18;;;;;;;;;8.33;6.67;;;;;11.27;93.74;101207.31;5060166;28;46859;-49
2023/11/21 05:27:44;;;;;;;;;8.00;8.00;;;;;11.28;94.27;101206.34;5058172;28;45511;-47
2023/11/21 05:30:12;;;;;;;;;4.67;4.00;;;;;11.30;94.25;101205.34;5060506;28;45467;-48
2023/11/21 05:32:37;;;;;;;;;6.00;6.00;;;;;11.32;94.21;101207.94;5062179;28;45302;-47
2023/11/21 05:35:03;;;;;;;;;9.67;7.00;;;;;11.34;94.57;101211.38;5057475;28;45308;-47
2023/11/21 05:37:28;;;;;;;;;9.00;8.00;;;;;11.35;94.83;101213.97;5057832;28;45993;-48
2023/11/21 05:39:56;;;;;;;;;9.67;7.33;;;;;11.36;94.73;101222.84;5058594;28;69226;-49
2023/11/21 05:42:23;;;;;;;;;9.00;7.67;;;;;11.36;94.12;101222.84;5063916;27;45559;-47
2023/11/21 05:44:48;;;;;;;;;6.00;6.00;;;;;11.36;94.59;101225.50;5057056;28;46240;-50
2023/11/21 05:47:14;;;;;;;;;8.00;8.00;;;;;11.36;93.94;101229.03;5056390;28;73064;-48
2023/11/21 05:49:39;;;;;;;;;10.67;7.67;;;;;11.36;94.76;101229.03;5057878;28;45422;-48
2023/11/21 05:52:05;;;;;;;;;9.00;6.00;;;;;11.36;95.17;101221.03;5056185;28;70480;-49
2023/11/21 05:54:30;;;;;;;;;9.00;6.67;;;;;11.37;95.14;101230.75;5057425;28;45445;-47
2023/11/21 05:56:55;;;;;;;;;8.67;6.67;;;;;11.39;95.24;101228.03;5057599;28;45362;-48
2023/11/21 05:59:21;;;;;;;;;7.67;7.67;;;;;11.39;95.53;101231.56;5068647;28;45546;-49
2023/11/21 06:01:46;;;;;;;;;5.67;5.67;;;;;11.40;95.65;101240.41;5052087;28;70506;-48
2023/11/21 06:04:12;;;;;;;;;10.33;6.33;;;;;11.40;95.37;101235.09;5062787;28;69797;-50
2023/11/21 06:06:38;;;;;;;;;8.33;8.33;;;;;11.40;95.52;101238.59;5068137;28;45447;-48
2023/11/21 06:09:05;;;;;;;;;9.00;8.33;;;;;11.40;95.34;101241.25;5043707;28;45444;-48
2023/11/21 06:11:31;;;;;;;;;15.33;11.67;;;;;11.40;95.27;101238.59;5065547;28;45514;-48
2023/11/21 06:13:56;;;;;;;;;12.00;10.00;;;;;11.40;95.39;101243.06;5062577;28;46019;-49
2023/11/21 06:16:22;;;;;;;;;12.33;12.33;;;;;11.40;96.05;101253.72;5097452;27;47349;-48
2023/11/21 06:18:47;;;;;;;;;12.00;11.00;;;;;11.38;96.01;101237.81;5071386;28;68116;-47
2023/11/21 06:21:13;;;;;;;;;11.00;9.00;;;;;11.40;95.68;101253.72;5062625;28;60934;-47
2023/11/21 06:23:39;;;;;;;;;10.33;8.33;;;;;11.39;95.82;101255.53;5062736;28;45457;-47
2023/11/21 06:26:05;;;;;;;;;9.00;8.67;;;;;11.38;96.14;101248.47;5055910;28;45297;-47
2023/11/21 06:28:31;;;;;;;;;11.67;9.00;;;;;11.38;96.37;101255.59;5062197;28;45425;-47
2023/11/21 06:30:57;;;;;;;;;6.00;6.00;;;;;11.37;96.57;101257.41;5075063;28;65739;-48
2023/11/21 06:33:23;;;;;;;;;6.00;6.00;;;;;11.38;96.25;101259.13;5060324;28;46137;-47
2023/11/21 06:35:49;;;;;;;;;4.00;4.00;;;;;11.38;95.71;101261.78;5054330;28;49939;-48
2023/11/21 06:38:14;;;;;;;;;6.67;5.67;;;;;11.37;96.43;101260.06;5062249;27;45304;-49
2023/11/21 06:40:40;;;;;;;;;7.00;5.67;;;;;11.37;97.15;101265.38;5061279;28;45484;-49
2023/11/21 06:43:07;;;;;;;;;7.00;5.00;;;;;11.38;96.75;101268.91;5059428;28;46301;-47
2023/11/21 06:45:33;;;;;;;;;6.67;3.00;;;;;11.39;96.24;101257.31;5062112;27;45580;-48
2023/11/21 06:47:59;;;;;;;;;4.33;4.33;;;;;11.38;96.46;101260.91;5049815;28;45676;-47
2023/11/21 06:50:24;;;;;;;;;8.33;5.33;;;;;11.37;96.93;101260.06;5060108;28;65666;-49
2023/11/21 06:52:49;;;;;;;;;5.00;5.00;;;;;11.37;97.28;101265.38;5060337;28;61749;-48
2023/11/21 06:55:15;;;;;;;;;5.00;5.00;;;;;11.39;97.52;101266.19;5059930;28;55704;-50
2023/11/21 06:57:41;;;;;;;;;6.67;4.33;;;;;11.41;97.62;101268.78;5057035;28;45668;-48
2023/11/21 07:00:08;;;;;;;;;4.67;4.33;;;;;11.43;97.74;101272.22;5081149;27;45342;-50
2023/11/21 07:02:34;;;;;;;;;3.00;3.00;;;;;11.41;97.54;101266.97;5064086;28;45461;-49
2023/11/21 07:04:59;;;;;;;;;4.33;4.33;;;;;11.43;97.89;101272.22;5063761;28;70104;-48
2023/11/21 07:07:25;;;;;;;;;6.00;4.67;;;;;11.44;97.70;101275.75;5064443;27;45490;-49
2023/11/21 07:09:51;;;;;;;;;4.00;3.67;;;;;11.45;97.58;101293.47;5065562;28;45604;-47
2023/11/21 07:12:17;;;;;;;;;3.33;3.33;;;;;11.43;98.17;101296.19;5061480;28;45746;-50
2023/11/21 07:14:44;;;;;;;;;4.00;4.00;;;;;11.44;97.91;101289.09;5073212;28;46975;-47
2023/11/21 07:17:13;;;;;;;;;6.33;5.00;;;;;11.45;97.56;101302.31;5069438;28;45426;-49
2023/11/21 07:19:38;;;;;;;;;5.67;5.67;;;;;11.45;97.58;101307.66;5061765;28;45745;-47
2023/11/21 07:22:05;;;;;;;;;4.00;4.00;;;;;11.46;97.63;101309.38;5059220;28;45522;-48
2023/11/21 07:24:31;;;;;;;;;4.33;4.33;;;;;11.45;97.82;101320.97;5056223;28;45554;-46
2023/11/21 07:26:57;;;;;;;;;6.00;5.00;;;;;11.46;97.21;101322.72;5049759;28;45575;-48
2023/11/21 07:29:25;;;;;;;;;8.33;7.33;;;;;11.46;98.21;101324.50;5063043;28;45627;-47
2023/11/21 07:31:51;;;;;;;;;6.00;6.00;;;;;11.47;98.20;101323.56;5059005;28;46198;-48
2023/11/21 07:34:16;;;;;;;;;7.00;6.33;;;;;11.48;98.04;101325.28;5061923;28;46097;-51
2023/11/21 07:36:42;;;;;;;;;13.67;9.00;;;;;11.52;97.75;101324.22;5062825;28;48220;-48
2023/11/21 07:39:07;;;;;;;;;7.67;7.67;;;;;11.52;98.25;101321.56;5059265;28;45501;-52
2023/11/21 07:41:32;;;;;;;;;12.67;10.00;;;;;11.53;98.51;101326.81;5060094;28;47322;-48
2023/11/21 07:43:58;;;;;;;;;8.00;8.00;;;;;11.55;98.48;101329.41;5057269;28;71866;-49
2023/11/21 07:46:24;;;;;;;;;12.33;10.00;;;;;11.57;98.34;101330.19;5059006;28;65016;-48
2023/11/21 07:48:49;;;;;;;;;10.00;10.00;;;;;11.60;97.72;101335.38;5053291;28;45561;-47
2023/11/21 07:51:14;;;;;;;;;12.67;11.00;;;;;11.62;98.11;101346.84;5088333;27;46633;-49
2023/11/21 07:53:40;;;;;;;;;9.33;7.67;;;;;11.63;98.41;101332.59;5060002;28;45401;-49
2023/11/21 07:56:07;;;;;;;;;9.00;7.67;;;;;11.65;98.50;101344.03;5055082;28;45355;-48
2023/11/21 07:58:33;;;;;;;;;8.33;8.33;;;;;11.69;98.75;101348.31;5059898;28;45335;-49
2023/11/21 08:00:59;;;;;;;;;10.00;8.67;;;;;11.71;98.92;101349.09;5059168;28;45379;-46
2023/11/21 08:03:26;;;;;;;;;12.00;10.00;;;;;11.73;98.08;101351.66;5059634;28;47278;-47
2023/11/21 08:05:52;;;;;;;;;7.33;7.33;;;;;11.74;98.24;101362.25;5058205;28;45702;-47
2023/11/21 08:08:18;;;;;;;;;11.67;11.33;;;;;11.74;98.12;101362.25;5059286;28;45680;-48
2023/11/21 08:10:45;;;;;;;;;12.33;12.33;;;;;11.74;98.50;101358.75;5059012;28;45404;-47
2023/11/21 08:13:14;;;;;;;;;8.33;7.67;;;;;11.75;97.89;101364.00;5059017;28;45344;-48
2023/11/21 08:15:40;;;;;;;;;14.00;10.67;;;;;11.75;98.01;101371.97;5057109;28;45682;-46
2023/11/21 08:18:07;;;;;;;;;11.33;9.00;;;;;11.76;98.02;101370.22;5059176;28;45338;-48
2023/11/21 08:20:33;;;;;;;;;9.33;8.00;;;;;11.77;98.59;101374.56;5055260;28;47124;-47
2023/11/21 08:22:58;;;;;;;;;11.00;11.00;;;;;11.77;98.19;101371.91;5058419;28;45216;-46
2023/11/21 08:25:23;;;;;;;;;9.00;8.00;;;;;11.78;98.12;101373.66;5058055;28;69093;-47
2023/11/21 08:27:49;;;;;;;;;11.33;10.33;;;;;11.80;97.62;101376.22;5058402;28;65378;-49
2023/11/21 08:30:16;;;;;;;;;7.67;7.67;;;;;11.81;97.76;101367.31;5057954;28;71528;-48
2023/11/21 08:32:42;;;;;;;;;9.33;8.33;;;;;11.84;98.24;101380.50;5059261;28;45468;-47
2023/11/21 08:35:07;;;;;;;;;11.33;10.67;;;;;11.88;97.77;101380.28;5056721;28;56740;-49
2023/11/21 08:37:37;;;;;;;;;10.00;6.33;;;;;11.93;97.26;101380.09;5059064;28;45276;-47
2023/11/21 08:40:03;;;;;;;;;10.67;8.33;;;;;11.99;97.69;101373.63;5058400;28;47434;-48
2023/11/21 08:42:29;;;;;;;;;12.00;11.67;;;;;12.08;97.79;101379.41;5058471;28;45480;-47
2023/11/21 08:44:57;;;;;;;;;11.67;11.00;;;;;12.28;97.93;101374.94;5055385;28;45320;-50
2023/11/21 08:47:24;;;;;;;;;10.67;8.67;;;;;12.49;97.41;101385.47;5055045;28;45524;-46
2023/11/21 08:49:52;;;;;;;;;11.00;9.00;;;;;12.61;96.52;101394.72;5057223;28;47457;-48
2023/11/21 08:52:18;;;;;;;;;10.33;10.33;;;;;12.64;95.63;101399.88;5058632;28;45300;-46
2023/11/21 08:54:45;;;;;;;;;10.00;10.00;;;;;12.62;95.49;101405.28;5058770;28;45391;-50
2023/11/21 08:57:10;;;;;;;;;11.33;10.67;;;;;12.57;95.14;101408.19;5056897;28;45476;-47
2023/11/21 08:59:36;;;;;;;;;11.33;11.33;;;;;12.53;95.09;101408.41;5057461;28;73994;-47
2023/11/21 09:02:01;;;;;;;;;15.00;11.00;;;;;12.49;95.46;101413.03;5057640;28;69567;-49
2023/11/21 09:04:27;;;;;;;;;9.50;9.00;;;;;12.48;95.57;101411.28;5056805;28;69611;-47
2023/11/21 09:06:52;;;;;;;;;14.00;12.00;;;;;12.48;95.53;101416.63;5058134;28;45519;-46
2023/11/21 09:09:19;;;;;;;;;10.33;10.00;;;;;12.46;95.42;101420.31;5058368;28;54874;-51
2023/11/21 09:11:45;;;;;;;;;11.00;10.00;;;;;12.43;95.00;101417.81;5074009;28;45384;-46
2023/11/21 09:14:12;;;;;;;;;11.33;11.33;;;;;12.37;95.46;101419.81;5055025;28;45720;-49
2023/11/21 09:16:38;;;;;;;;;12.00;8.67;;;;;12.35;95.90;101426.16;5056800;28;45485;-49
2023/11/21 09:19:05;;;;;;;;;8.33;8.33;;;;;12.35;95.35;101432.38;5046940;28;47087;-47
2023/11/21 09:21:30;;;;;;;;;7.33;7.33;;;;;12.36;95.80;101422.56;5055705;28;45391;-50
2023/11/21 09:23:56;;;;;;;;;6.67;6.33;;;;;12.44;95.80;101422.19;5048777;28;45405;-50
2023/11/21 09:26:21;;;;;;;;;6.33;6.33;;;;;12.53;95.35;101421.75;5054524;28;68087;-47
2023/11/21 09:28:47;;;;;;;;;7.67;6.00;;;;;12.65;95.53;101418.47;5057267;28;53756;-46
2023/11/21 09:31:15;;;;;;;;;10.00;7.00;;;;;12.87;94.91;101422.78;5055772;28;45503;-47
2023/11/21 09:33:41;;;;;;;;;5.00;5.00;;;;;13.08;94.32;101427.00;5057828;28;45495;-47
2023/11/21 09:36:11;;;;;;;;;3.67;3.67;;;;;13.30;93.51;101425.94;5052591;28;45569;-50
2023/11/21 09:38:36;;;;;;;;;6.00;4.33;;;;;13.46;92.49;101430.50;5061173;28;47863;-48
2023/11/21 09:41:04;;;;;;;;;7.00;6.00;;;;;13.49;91.82;101435.69;5060526;28;45472;-48
2023/11/21 09:43:30;;;;;;;;;5.00;3.00;;;;;13.45;90.85;101439.47;5061189;28;45507;-48
2023/11/21 09:46:00;;;;;;;;;5.33;4.67;;;;;13.44;90.90;101445.75;5089768;27;70350;-47
2023/11/21 09:48:26;;;;;;;;;3.00;3.00;;;;;13.38;90.52;101439.78;5059887;28;46783;-46
2023/11/21 09:50:53;;;;;;;;;3.67;3.67;;;;;13.35;90.61;101444.38;5090535;27;48256;-46
2023/11/21 09:53:27;;;;;;;;;3.33;3.00;;;;;13.30;90.50;101449.97;5061463;28;45513;-47
2023/11/21 09:55:54;;;;;;;;;3.00;3.00;;;;;13.26;90.86;101445.75;5060799;28;45671;-46
2023/11/21 09:58:21;;;;;;;;;3.67;2.33;;;;;13.26;91.10;101458.22;5061066;28;46161;-50
2023/11/21 10:00:48;;;;;;;;;3.00;3.00;;;;;13.23;90.81;101454.78;5061512;28;45414;-47
2023/11/21 10:03:14;;;;;;;;;2.33;2.33;;;;;13.19;91.13;101471.03;5060819;28;45306;-46
2023/11/21 10:05:41;;;;;;;;;4.00;4.00;;;;;13.13;90.92;101474.00;5061750;28;45559;-49
2023/11/21 10:08:10;;;;;;;;;5.00;5.00;;;;;13.08;91.33;101483.09;5059896;28;45423;-48
2023/11/21 10:10:37;;;;;;;;;2.67;2.67;;;;;13.07;91.85;101484.06;5060201;28;45519;-47
2023/11/21 10:13:07;;;;;;;;;1.33;1.33;;;;;13.10;92.54;101487.50;5060091;28;45507;-47
2023/11/21 10:15:36;;;;;;;;;1.00;1.00;;;;;13.16;92.72;101488.06;5060314;28;45365;-47
2023/11/21 10:18:06;;;;;;;;;2.00;2.00;;;;;13.18;92.22;101493.31;5059597;28;46452;-49
2023/11/21 10:20:33;;;;;;;;;1.00;1.00;;;;;13.15;92.38;101496.16;5059742;28;45366;-47
2023/11/21 10:22:59;;;;;;;;;2.00;2.00;;;;;13.08;92.12;101512.47;5063717;28;46559;-46
2023/11/21 10:25:25;;;;;;;;;2.00;2.00;;;;;13.02;92.65;101506.56;5058633;28;45585;-48
2023/11/21 10:27:57;;;;;;;;;1.00;1.00;;;;;13.00;93.85;101514.66;5060629;28;47080;-50
2023/11/21 10:30:22;;;;;;;;;2.00;2.00;;;;;12.99;93.73;101507.59;5057422;28;45453;-49
2023/11/21 10:32:48;;;;;;;;;3.00;3.00;;;;;12.99;93.29;101512.94;5046404;28;46219;-47
2023/11/21 10:35:13;;;;;;;;;0.00;0.00;;;;;12.98;93.07;101507.69;5057550;28;69634;-48
2023/11/21 10:37:43;;;;;;;;;0.00;0.00;;;;;13.01;93.67;101511.06;5059476;28;46124;-48
2023/11/21 10:40:14;;;;;;;;;1.00;1.00;;;;;13.07;93.35;101518.78;5057448;28;45411;-46
2023/11/21 10:42:40;;;;;;;;;0.00;0.00;;;;;13.11;92.88;101518.63;5057009;28;45449;-49
2023/11/21 10:45:12;;;;;;;;;0.75;0.75;;;;;13.11;92.86;101513.28;5058158;28;45454;-47
2023/11/21 10:47:39;;;;;;;;;1.00;1.00;;;;;13.10;93.04;101517.75;5055907;28;46391;-46
2023/11/21 10:50:05;;;;;;;;;1.00;1.00;;;;;13.11;92.97;101519.47;5059445;28;45549;-47
2023/11/21 10:52:30;;;;;;;;;0.33;0.33;;;;;13.14;93.53;101521.13;5060704;28;45521;-48
2023/11/21 10:54:58;;;;;;;;;1.00;1.00;;;;;13.10;92.34;101525.75;5058215;28;45335;-48
2023/11/21 10:57:25;;;;;;;;;2.00;2.00;;;;;12.99;93.21;101526.28;5060606;28;46289;-47
2023/11/21 10:59:54;;;;;;;;;1.00;1.00;;;;;12.95;93.95;101531.88;5059794;28;45331;-47
2023/11/21 11:02:27;;;;;;;;;1.00;1.00;;;;;12.93;94.20;101525.72;5055626;28;69372;-48
2023/11/21 11:04:55;;;;;;;;;1.00;1.00;;;;;12.96;94.61;101533.56;5051072;28;45739;-47
2023/11/21 11:07:22;;;;;;;;;1.33;1.33;;;;;12.99;95.23;101522.75;5057544;28;46295;-47
2023/11/21 11:09:48;;;;;;;;;1.00;1.00;;;;;13.01;95.15;101527.09;5058833;28;45462;-49
2023/11/21 11:12:14;;;;;;;;;2.00;1.00;;;;;13.00;94.71;101525.34;5091534;27;68075;-49
2023/11/21 11:14:41;;;;;;;;;0.00;0.00;;;;;13.00;94.85;101528.03;5058088;28;45457;-48
2023/11/21 11:17:08;;;;;;;;;2.00;1.00;;;;;12.99;95.19;101520.94;5086303;27;45732;-47
2023/11/21 11:19:35;;;;;;;;;0.00;0.00;;;;;13.02;94.85;101528.81;5059148;28;45428;-49
2023/11/21 11:22:08;;;;;;;;;1.00;1.00;;;;;13.05;94.20;101533.16;5083481;27;45449;-48
2023/11/21 11:25:05;;;;;;;;;0.00;0.00;;;;;13.16;94.35;101530.81;5054410;28;45534;-51
2023/11/21 11:27:36;;;;;;;;;2.00;0.00;;;;;13.35;93.79;101528.09;5057981;28;46519;-50
2023/11/21 11:30:39;;;;;;;;;1.00;1.00;;;;;13.39;93.09;101537.72;5058774;28;45669;-47
2023/11/21 11:33:36;;;;;;;;;0.00;0.00;;;;;13.26;93.08;101536.56;5059297;28;45296;-51